sensor_id;sensor_type;location;lat;lon;timestamp;P1;durP1;ratioP1;P2;durP2;ratioP2
38557;SDS011;24333;42.626;23.308;2023-07-29T08:02:09;4.22;;;2.33;;
38557;SDS011;24333;42.626;23.308;2023-07-29T08:04:35;3.70;;;2.00;;
38557;SDS011;24333;42.626;23.308;2023-07-29T08:07:01;4.13;;;2.05;;
38557;SDS011;24333;42.626;23.308;2023-07-29T08:28:37;2.83;;;1.92;;
38557;SDS011;24333;42.626;23.308;2023-07-29T08:31:04;3.47;;;2.00;;
38557;SDS011;24333;42.626;23.308;2023-07-29T08:33:31;5.13;;;2.15;;
38557;SDS011;24333;42.626;23.308;2023-07-29T08:35:58;2.67;;;1.65;;
38557;SDS011;24333;42.626;23.308;2023-07-29T08:38:24;6.50;;;1.85;;
38557;SDS011;24333;42.626;23.308;2023-07-29T08:43:31;3.60;;;2.30;;
38557;SDS011;24333;42.626;23.308;2023-07-29T08:45:58;4.05;;;2.03;;
38557;SDS011;24333;42.626;23.308;2023-07-29T08:48:43;3.25;;;2.08;;
38557;SDS011;24333;42.626;23.308;2023-07-29T08:51:09;6.00;;;1.92;;
38557;SDS011;24333;42.626;23.308;2023-07-29T08:53:36;4.20;;;1.50;;
38557;SDS011;24333;42.626;23.308;2023-07-29T08:56:02;2.60;;;1.73;;
38557;SDS011;24333;42.626;23.308;2023-07-29T08:58:28;3.15;;;1.92;;
38557;SDS011;24333;42.626;23.308;2023-07-29T09:00:54;2.35;;;1.73;;
38557;SDS011;24333;42.626;23.308;2023-07-29T09:03:19;2.28;;;1.67;;
38557;SDS011;24333;42.626;23.308;2023-07-29T09:05:45;2.60;;;1.83;;
38557;SDS011;24333;42.626;23.308;2023-07-29T09:08:11;3.92;;;1.67;;
38557;SDS011;24333;42.626;23.308;2023-07-29T09:10:37;3.03;;;1.85;;
38557;SDS011;24333;42.626;23.308;2023-07-29T09:13:06;3.13;;;1.80;;
38557;SDS011;24333;42.626;23.308;2023-07-29T09:15:32;2.50;;;1.73;;
38557;SDS011;24333;42.626;23.308;2023-07-29T09:18:00;3.22;;;1.70;;
38557;SDS011;24333;42.626;23.308;2023-07-29T09:20:39;5.47;;;1.52;;
38557;SDS011;24333;42.626;23.308;2023-07-29T09:23:07;3.72;;;1.70;;
38557;SDS011;24333;42.626;23.308;2023-07-29T09:25:34;7.00;;;1.90;;
38557;SDS011;24333;42.626;23.308;2023-07-29T09:28:00;3.33;;;1.67;;
38557;SDS011;24333;42.626;23.308;2023-07-29T15:47:39;3.00;;;1.52;;
38557;SDS011;24333;42.626;23.308;2023-07-29T15:50:05;2.05;;;1.20;;
38557;SDS011;24333;42.626;23.308;2023-07-29T15:52:32;2.42;;;1.13;;
38557;SDS011;24333;42.626;23.308;2023-07-29T15:55:17;1.63;;;0.98;;
38557;SDS011;24333;42.626;23.308;2023-07-29T15:57:43;1.80;;;1.27;;
38557;SDS011;24333;42.626;23.308;2023-07-29T16:00:08;2.20;;;1.10;;
38557;SDS011;24333;42.626;23.308;2023-07-29T16:02:35;0.85;;;0.77;;
38557;SDS011;24333;42.626;23.308;2023-07-29T16:07:53;1.33;;;0.90;;
38557;SDS011;24333;42.626;23.308;2023-07-29T16:13:22;4.35;;;1.15;;
38557;SDS011;24333;42.626;23.308;2023-07-29T16:15:47;1.20;;;0.85;;
38557;SDS011;24333;42.626;23.308;2023-07-29T16:18:13;2.95;;;1.13;;
38557;SDS011;24333;42.626;23.308;2023-07-29T16:20:38;1.08;;;0.80;;
38557;SDS011;24333;42.626;23.308;2023-07-29T16:23:04;1.40;;;0.98;;
38557;SDS011;24333;42.626;23.308;2023-07-29T16:25:29;1.85;;;0.98;;
38557;SDS011;24333;42.626;23.308;2023-07-29T16:27:55;2.20;;;1.20;;
38557;SDS011;24333;42.626;23.308;2023-07-29T16:30:22;1.20;;;0.93;;
38557;SDS011;24333;42.626;23.308;2023-07-29T16:32:47;2.13;;;1.30;;
38557;SDS011;24333;42.626;23.308;2023-07-29T16:35:12;1.55;;;1.00;;
38557;SDS011;24333;42.626;23.308;2023-07-29T16:37:38;1.40;;;1.02;;
38557;SDS011;24333;42.626;23.308;2023-07-29T16:40:03;1.48;;;1.00;;
38557;SDS011;24333;42.626;23.308;2023-07-29T16:42:30;2.75;;;1.40;;
38557;SDS011;24333;42.626;23.308;2023-07-29T16:44:56;2.03;;;1.13;;
38557;SDS011;24333;42.626;23.308;2023-07-29T16:47:40;1.75;;;1.45;;
38557;SDS011;24333;42.626;23.308;2023-07-29T16:50:09;3.97;;;1.30;;
38557;SDS011;24333;42.626;23.308;2023-07-29T16:52:36;3.47;;;2.13;;
38557;SDS011;24333;42.626;23.308;2023-07-29T16:55:08;4.75;;;2.22;;
38557;SDS011;24333;42.626;23.308;2023-07-29T16:57:37;1.77;;;1.40;;
38557;SDS011;24333;42.626;23.308;2023-07-29T17:00:03;4.75;;;1.77;;
38557;SDS011;24333;42.626;23.308;2023-07-29T17:02:34;3.63;;;1.60;;
38557;SDS011;24333;42.626;23.308;2023-07-29T17:05:00;2.13;;;1.10;;
38557;SDS011;24333;42.626;23.308;2023-07-29T17:07:29;2.17;;;1.80;;
38557;SDS011;24333;42.626;23.308;2023-07-29T17:09:54;4.72;;;1.45;;
38557;SDS011;24333;42.626;23.308;2023-07-29T17:12:20;1.88;;;1.30;;
38557;SDS011;24333;42.626;23.308;2023-07-29T17:14:45;2.55;;;1.52;;
38557;SDS011;24333;42.626;23.308;2023-07-29T17:17:10;2.67;;;1.48;;
38557;SDS011;24333;42.626;23.308;2023-07-29T17:19:36;3.40;;;2.30;;
38557;SDS011;24333;42.626;23.308;2023-07-29T17:22:02;5.68;;;1.80;;
38557;SDS011;24333;42.626;23.308;2023-07-29T17:24:28;8.50;;;2.58;;
38557;SDS011;24333;42.626;23.308;2023-07-29T17:26:53;4.15;;;2.08;;
38557;SDS011;24333;42.626;23.308;2023-07-29T17:29:18;2.90;;;1.92;;
38557;SDS011;24333;42.626;23.308;2023-07-29T17:31:44;3.63;;;2.00;;
38557;SDS011;24333;42.626;23.308;2023-07-29T17:34:10;3.58;;;2.10;;
38557;SDS011;24333;42.626;23.308;2023-07-29T17:36:36;4.40;;;1.90;;
38557;SDS011;24333;42.626;23.308;2023-07-29T17:39:02;3.40;;;2.20;;
38557;SDS011;24333;42.626;23.308;2023-07-29T17:41:27;10.35;;;2.63;;
38557;SDS011;24333;42.626;23.308;2023-07-29T17:43:53;4.22;;;2.78;;
38557;SDS011;24333;42.626;23.308;2023-07-29T17:46:36;7.00;;;2.70;;
38557;SDS011;24333;42.626;23.308;2023-07-29T17:49:02;6.30;;;3.28;;
38557;SDS011;24333;42.626;23.308;2023-07-29T17:51:27;12.30;;;2.45;;
38557;SDS011;24333;42.626;23.308;2023-07-29T17:53:53;3.22;;;2.35;;
38557;SDS011;24333;42.626;23.308;2023-07-29T17:56:18;6.72;;;2.60;;
38557;SDS011;24333;42.626;23.308;2023-07-29T17:58:43;4.43;;;1.83;;
38557;SDS011;24333;42.626;23.308;2023-07-29T18:01:09;6.13;;;2.72;;
38557;SDS011;24333;42.626;23.308;2023-07-29T18:03:34;6.10;;;3.08;;
38557;SDS011;24333;42.626;23.308;2023-07-29T18:06:00;5.55;;;2.60;;
38557;SDS011;24333;42.626;23.308;2023-07-29T18:08:25;4.82;;;2.30;;
38557;SDS011;24333;42.626;23.308;2023-07-29T18:10:51;4.82;;;2.60;;
38557;SDS011;24333;42.626;23.308;2023-07-29T18:13:16;4.90;;;2.35;;
38557;SDS011;24333;42.626;23.308;2023-07-29T18:15:42;6.22;;;2.90;;
38557;SDS011;24333;42.626;23.308;2023-07-29T18:18:07;9.02;;;3.25;;
38557;SDS011;24333;42.626;23.308;2023-07-29T18:20:33;3.40;;;1.98;;
38557;SDS011;24333;42.626;23.308;2023-07-29T18:23:00;2.38;;;2.05;;
38557;SDS011;24333;42.626;23.308;2023-07-29T18:25:30;6.47;;;2.40;;
38557;SDS011;24333;42.626;23.308;2023-07-29T18:27:58;4.75;;;2.47;;
38557;SDS011;24333;42.626;23.308;2023-07-29T18:30:24;6.45;;;3.22;;
38557;SDS011;24333;42.626;23.308;2023-07-29T18:32:49;5.05;;;2.55;;
38557;SDS011;24333;42.626;23.308;2023-07-29T18:35:14;4.07;;;2.30;;
38557;SDS011;24333;42.626;23.308;2023-07-29T18:37:46;3.30;;;1.73;;
38557;SDS011;24333;42.626;23.308;2023-07-29T18:40:12;3.13;;;1.95;;
38557;SDS011;24333;42.626;23.308;2023-07-29T18:42:38;3.88;;;2.10;;
38557;SDS011;24333;42.626;23.308;2023-07-29T18:45:04;5.28;;;2.53;;
38557;SDS011;24333;42.626;23.308;2023-07-29T18:47:31;4.80;;;1.92;;
38557;SDS011;24333;42.626;23.308;2023-07-29T18:49:56;4.53;;;2.47;;
38557;SDS011;24333;42.626;23.308;2023-07-29T18:52:23;5.15;;;2.60;;
38557;SDS011;24333;42.626;23.308;2023-07-29T18:54:49;5.20;;;2.15;;
38557;SDS011;24333;42.626;23.308;2023-07-29T18:57:14;4.93;;;2.10;;
38557;SDS011;24333;42.626;23.308;2023-07-29T18:59:40;6.45;;;2.75;;
38557;SDS011;24333;42.626;23.308;2023-07-29T19:02:05;7.38;;;2.67;;
38557;SDS011;24333;42.626;23.308;2023-07-29T19:04:31;2.65;;;1.50;;
38557;SDS011;24333;42.626;23.308;2023-07-29T19:06:56;3.90;;;1.90;;
38557;SDS011;24333;42.626;23.308;2023-07-29T19:09:22;4.03;;;1.70;;
38557;SDS011;24333;42.626;23.308;2023-07-29T19:11:50;4.57;;;1.67;;
38557;SDS011;24333;42.626;23.308;2023-07-29T19:14:16;3.58;;;1.30;;
38557;SDS011;24333;42.626;23.308;2023-07-29T19:16:41;2.65;;;1.20;;
38557;SDS011;24333;42.626;23.308;2023-07-29T19:19:06;6.40;;;1.50;;
38557;SDS011;24333;42.626;23.308;2023-07-29T19:21:32;2.05;;;1.33;;
38557;SDS011;24333;42.626;23.308;2023-07-29T19:23:57;2.67;;;1.20;;
38557;SDS011;24333;42.626;23.308;2023-07-29T19:26:23;3.85;;;1.30;;
38557;SDS011;24333;42.626;23.308;2023-07-29T19:28:49;6.47;;;1.60;;
38557;SDS011;24333;42.626;23.308;2023-07-29T19:31:15;6.78;;;2.38;;
38557;SDS011;24333;42.626;23.308;2023-07-29T19:33:41;9.35;;;3.13;;
38557;SDS011;24333;42.626;23.308;2023-07-29T19:36:08;7.80;;;3.92;;
38557;SDS011;24333;42.626;23.308;2023-07-29T19:38:33;9.30;;;3.67;;
38557;SDS011;24333;42.626;23.308;2023-07-29T19:40:59;4.60;;;2.15;;
38557;SDS011;24333;42.626;23.308;2023-07-29T19:43:25;6.72;;;2.38;;
38557;SDS011;24333;42.626;23.308;2023-07-29T19:45:50;4.60;;;2.00;;
38557;SDS011;24333;42.626;23.308;2023-07-29T19:48:16;4.15;;;1.90;;
38557;SDS011;24333;42.626;23.308;2023-07-29T19:50:42;4.10;;;1.58;;
38557;SDS011;24333;42.626;23.308;2023-07-29T19:53:08;1.92;;;1.08;;
38557;SDS011;24333;42.626;23.308;2023-07-29T19:55:33;2.58;;;1.27;;
38557;SDS011;24333;42.626;23.308;2023-07-29T19:57:59;2.70;;;1.30;;
38557;SDS011;24333;42.626;23.308;2023-07-29T20:00:24;1.77;;;1.08;;
38557;SDS011;24333;42.626;23.308;2023-07-29T20:02:50;3.50;;;1.50;;
38557;SDS011;24333;42.626;23.308;2023-07-29T20:05:15;2.90;;;1.75;;
38557;SDS011;24333;42.626;23.308;2023-07-29T20:07:41;3.03;;;1.50;;
38557;SDS011;24333;42.626;23.308;2023-07-29T20:10:06;5.07;;;1.52;;
38557;SDS011;24333;42.626;23.308;2023-07-29T20:12:32;3.40;;;1.92;;
38557;SDS011;24333;42.626;23.308;2023-07-29T20:14:57;3.10;;;1.40;;
38557;SDS011;24333;42.626;23.308;2023-07-29T20:17:27;6.38;;;2.08;;
38557;SDS011;24333;42.626;23.308;2023-07-29T20:19:52;6.35;;;1.73;;
38557;SDS011;24333;42.626;23.308;2023-07-29T20:22:17;5.50;;;2.10;;
38557;SDS011;24333;42.626;23.308;2023-07-29T20:24:43;1.58;;;1.20;;
38557;SDS011;24333;42.626;23.308;2023-07-29T20:27:08;1.88;;;1.50;;
38557;SDS011;24333;42.626;23.308;2023-07-29T20:29:34;2.72;;;1.33;;
38557;SDS011;24333;42.626;23.308;2023-07-29T20:31:59;2.97;;;1.40;;
38557;SDS011;24333;42.626;23.308;2023-07-29T20:34:24;1.88;;;1.10;;
38557;SDS011;24333;42.626;23.308;2023-07-29T20:36:50;2.25;;;1.33;;
38557;SDS011;24333;42.626;23.308;2023-07-29T20:39:15;1.95;;;1.15;;
38557;SDS011;24333;42.626;23.308;2023-07-29T20:41:40;1.92;;;1.10;;
38557;SDS011;24333;42.626;23.308;2023-07-29T20:44:06;3.33;;;1.70;;
38557;SDS011;24333;42.626;23.308;2023-07-29T20:46:35;1.73;;;1.30;;
38557;SDS011;24333;42.626;23.308;2023-07-29T20:49:01;2.13;;;1.30;;
38557;SDS011;24333;42.626;23.308;2023-07-29T20:51:27;5.63;;;1.13;;
38557;SDS011;24333;42.626;23.308;2023-07-29T20:53:52;2.22;;;1.50;;
38557;SDS011;24333;42.626;23.308;2023-07-29T20:56:17;1.83;;;1.23;;
38557;SDS011;24333;42.626;23.308;2023-07-29T20:58:43;1.60;;;1.10;;
38557;SDS011;24333;42.626;23.308;2023-07-29T21:01:09;1.90;;;1.30;;
38557;SDS011;24333;42.626;23.308;2023-07-29T21:03:35;2.17;;;1.27;;
38557;SDS011;24333;42.626;23.308;2023-07-29T21:06:00;1.67;;;1.17;;
38557;SDS011;24333;42.626;23.308;2023-07-29T21:08:26;2.75;;;1.75;;
38557;SDS011;24333;42.626;23.308;2023-07-29T21:10:52;1.80;;;1.20;;
38557;SDS011;24333;42.626;23.308;2023-07-29T21:13:18;1.40;;;1.05;;
38557;SDS011;24333;42.626;23.308;2023-07-29T21:15:53;2.47;;;1.33;;
38557;SDS011;24333;42.626;23.308;2023-07-29T21:18:21;3.28;;;1.70;;
38557;SDS011;24333;42.626;23.308;2023-07-29T21:20:47;1.98;;;1.33;;
38557;SDS011;24333;42.626;23.308;2023-07-29T21:23:13;1.48;;;0.98;;
38557;SDS011;24333;42.626;23.308;2023-07-29T21:25:38;1.90;;;1.15;;
38557;SDS011;24333;42.626;23.308;2023-07-29T21:28:04;2.22;;;1.10;;
38557;SDS011;24333;42.626;23.308;2023-07-29T21:30:30;1.88;;;1.00;;
38557;SDS011;24333;42.626;23.308;2023-07-29T21:32:55;1.50;;;1.00;;
38557;SDS011;24333;42.626;23.308;2023-07-29T21:35:21;1.60;;;1.17;;
38557;SDS011;24333;42.626;23.308;2023-07-29T21:37:46;2.90;;;1.30;;
38557;SDS011;24333;42.626;23.308;2023-07-29T21:40:12;4.22;;;1.25;;
38557;SDS011;24333;42.626;23.308;2023-07-29T21:42:37;2.63;;;1.40;;
38557;SDS011;24333;42.626;23.308;2023-07-29T21:45:03;2.50;;;1.33;;
38557;SDS011;24333;42.626;23.308;2023-07-29T21:47:30;2.17;;;1.02;;
38557;SDS011;24333;42.626;23.308;2023-07-29T21:49:55;2.78;;;1.20;;
38557;SDS011;24333;42.626;23.308;2023-07-29T21:52:21;1.88;;;1.17;;
38557;SDS011;24333;42.626;23.308;2023-07-29T21:54:47;1.73;;;1.23;;
38557;SDS011;24333;42.626;23.308;2023-07-29T21:57:13;1.77;;;1.30;;
38557;SDS011;24333;42.626;23.308;2023-07-29T21:59:38;3.85;;;1.27;;
38557;SDS011;24333;42.626;23.308;2023-07-29T22:02:03;2.85;;;1.00;;
38557;SDS011;24333;42.626;23.308;2023-07-29T22:04:29;2.22;;;1.27;;
38557;SDS011;24333;42.626;23.308;2023-07-29T22:06:54;4.32;;;1.10;;
38557;SDS011;24333;42.626;23.308;2023-07-29T22:09:20;2.10;;;1.35;;
38557;SDS011;24333;42.626;23.308;2023-07-29T22:11:45;2.72;;;1.60;;
38557;SDS011;24333;42.626;23.308;2023-07-29T22:14:11;3.28;;;1.27;;
38557;SDS011;24333;42.626;23.308;2023-07-29T22:16:36;3.80;;;1.27;;
